Time,TemperatureF,DewpointF,PressureIn,WindDirection,WindDirectionDegrees,WindSpeedMPH,WindSpeedGustMPH,Humidity,HourlyPrecipIn,Conditions,Clouds,dailyrainin,SoftwareType,DateUTC
2013-10-27 00:00:00,50.9,37.9,30.22,WNW,300,0.0,1.0,61,0.00,,,0.00,Wunderground v.1.15,2013-10-27 06:00:00,
2013-10-27 00:10:00,51.0,38.0,30.22,WNW,300,0.0,0.0,61,0.00,,,0.00,Wunderground v.1.15,2013-10-27 06:10:00,
2013-10-27 00:20:00,50.8,38.2,30.21,WNW,300,0.0,0.0,62,0.00,,,0.00,Wunderground v.1.15,2013-10-27 06:20:00,
2013-10-27 00:30:00,50.9,38.7,30.21,WNW,300,0.0,0.0,63,0.00,,,0.00,Wunderground v.1.15,2013-10-27 06:30:00,
2013-10-27 00:40:00,50.9,39.1,30.21,WNW,300,0.0,0.0,64,0.00,,,0.00,Wunderground v.1.15,2013-10-27 06:40:00,
2013-10-27 00:50:00,50.3,40.1,30.21,WNW,300,0.0,0.0,68,0.00,,,0.00,Wunderground v.1.15,2013-10-27 06:50:00,
2013-10-27 01:00:00,49.5,40.1,30.21,WNW,300,0.0,0.0,70,0.00,,,0.00,Wunderground v.1.15,2013-10-27 07:00:00,
2013-10-27 01:10:00,48.8,40.2,30.21,WNW,300,0.0,1.0,72,0.00,,,0.00,Wunderground v.1.15,2013-10-27 07:10:00,
2013-10-27 01:20:00,48.8,40.2,30.20,WNW,300,0.0,1.0,72,0.00,,,0.00,Wunderground v.1.15,2013-10-27 07:20:00,
2013-10-27 01:30:00,48.9,40.6,30.20,WNW,300,0.0,1.0,73,0.00,,,0.00,Wunderground v.1.15,2013-10-27 07:30:00,
2013-10-27 01:40:00,48.8,40.5,30.20,WNW,300,0.0,1.0,73,0.00,,,0.00,Wunderground v.1.15,2013-10-27 07:40:00,
2013-10-27 01:50:00,48.8,40.5,30.20,WNW,300,0.0,1.0,73,0.00,,,0.00,Wunderground v.1.15,2013-10-27 07:50:00,
2013-10-27 02:00:00,48.1,40.5,30.21,WNW,300,1.0,1.0,75,0.00,,,0.00,Wunderground v.1.15,2013-10-27 08:00:00,
2013-10-27 02:10:00,46.9,40.4,30.21,WNW,300,0.0,1.0,78,0.00,,,0.00,Wunderground v.1.15,2013-10-27 08:10:00,
2013-10-27 02:20:00,46.2,40.4,30.20,WNW,300,0.0,1.0,80,0.00,,,0.00,Wunderground v.1.15,2013-10-27 08:20:00,
2013-10-27 02:30:00,45.7,40.2,30.20,WNW,300,0.0,1.0,81,0.00,,,0.00,Wunderground v.1.15,2013-10-27 08:30:00,
2013-10-27 02:40:00,45.4,39.9,30.20,WNW,300,0.0,1.0,81,0.00,,,0.00,Wunderground v.1.15,2013-10-27 08:40:00,
2013-10-27 02:50:00,45.4,40.2,30.20,WNW,300,0.0,1.0,82,0.00,,,0.00,Wunderground v.1.15,2013-10-27 08:50:00,
2013-10-27 03:00:00,45.3,40.1,30.20,WNW,300,0.0,1.0,82,0.00,,,0.00,Wunderground v.1.15,2013-10-27 09:00:00,
2013-10-27 03:10:00,45.0,39.8,30.19,WNW,300,0.0,1.0,82,0.00,,,0.00,Wunderground v.1.15,2013-10-27 09:10:00,
2013-10-27 03:20:00,44.7,39.5,30.19,WNW,300,0.0,1.0,82,0.00,,,0.00,Wunderground v.1.15,2013-10-27 09:20:00,
2013-10-27 03:30:00,44.6,39.1,30.19,WNW,300,0.0,1.0,81,0.00,,,0.00,Wunderground v.1.15,2013-10-27 09:30:00,
2013-10-27 03:40:00,44.5,38.7,30.19,WNW,300,0.0,1.0,80,0.00,,,0.00,Wunderground v.1.15,2013-10-27 09:40:00,
2013-10-27 03:50:00,44.5,38.4,30.19,WNW,300,0.0,1.0,79,0.00,,,0.00,Wunderground v.1.15,2013-10-27 09:50:00,
2013-10-27 04:00:00,44.8,38.4,30.18,WNW,300,0.0,1.0,78,0.00,,,0.00,Wunderground v.1.15,2013-10-27 10:00:00,
2013-10-27 04:10:00,44.9,37.8,30.18,WNW,300,0.0,1.0,76,0.00,,,0.00,Wunderground v.1.15,2013-10-27 10:10:00,
2013-10-27 04:20:00,44.3,37.5,30.18,WNW,300,0.0,1.0,77,0.00,,,0.00,Wunderground v.1.15,2013-10-27 10:20:00,
2013-10-27 04:30:00,43.9,37.2,30.18,WNW,300,0.0,1.0,77,0.00,,,0.00,Wunderground v.1.15,2013-10-27 10:30:00,
2013-10-27 04:40:00,43.4,37.3,30.18,WNW,300,0.0,1.0,79,0.00,,,0.00,Wunderground v.1.15,2013-10-27 10:40:00,
2013-10-27 04:50:00,43.2,37.4,30.17,WNW,300,0.0,1.0,80,0.00,,,0.00,Wunderground v.1.15,2013-10-27 10:50:00,
2013-10-27 05:00:00,43.1,37.3,30.17,WNW,300,0.0,1.0,80,0.00,,,0.00,Wunderground v.1.15,2013-10-27 11:00:00,
2013-10-27 05:10:00,42.9,37.2,30.17,WNW,300,0.0,1.0,80,0.00,,,0.00,Wunderground v.1.15,2013-10-27 11:10:00,
2013-10-27 05:20:00,42.8,37.4,30.17,WNW,300,0.0,1.0,81,0.00,,,0.00,Wunderground v.1.15,2013-10-27 11:20:00,
2013-10-27 05:30:00,42.7,37.6,30.17,WNW,300,0.0,1.0,82,0.00,,,0.00,Wunderground v.1.15,2013-10-27 11:30:00,
2013-10-27 05:40:00,42.3,37.8,30.17,WNW,300,0.0,1.0,84,0.00,,,0.00,Wunderground v.1.15,2013-10-27 11:40:00,
2013-10-27 05:50:00,42.0,37.8,30.17,WNW,300,0.0,1.0,85,0.00,,,0.00,Wunderground v.1.15,2013-10-27 11:50:00,
2013-10-27 06:00:00,41.8,37.6,30.17,WNW,300,0.0,1.0,85,0.00,,,0.00,Wunderground v.1.15,2013-10-27 12:00:00,
2013-10-27 06:10:00,41.6,37.4,30.16,WNW,300,0.0,1.0,85,0.00,,,0.00,Wunderground v.1.15,2013-10-27 12:10:00,
2013-10-27 06:20:00,41.3,37.4,30.16,WNW,300,0.0,1.0,86,0.00,,,0.00,Wunderground v.1.15,2013-10-27 12:20:00,
2013-10-27 06:30:00,40.9,37.3,30.16,WNW,300,0.0,1.0,87,0.00,,,0.00,Wunderground v.1.15,2013-10-27 12:30:00,
2013-10-27 06:40:00,40.9,37.6,30.16,WNW,300,0.0,1.0,88,0.00,,,0.00,Wunderground v.1.15,2013-10-27 12:40:00,
2013-10-27 06:50:00,40.7,37.1,30.16,WNW,300,0.0,1.0,87,0.00,,,0.00,Wunderground v.1.15,2013-10-27 12:50:00,
2013-10-27 07:00:00,40.2,36.6,30.16,WNW,300,0.0,1.0,87,0.00,,,0.00,Wunderground v.1.15,2013-10-27 13:00:00,
2013-10-27 07:10:00,39.7,36.1,30.16,WNW,300,0.0,1.0,87,0.00,,,0.00,Wunderground v.1.15,2013-10-27 13:10:00,
2013-10-27 07:20:00,39.5,36.5,30.15,WNW,300,0.0,1.0,89,0.00,,,0.00,Wunderground v.1.15,2013-10-27 13:20:00,
2013-10-27 07:30:00,39.5,36.5,30.16,WNW,300,0.0,1.0,89,0.00,,,0.00,Wunderground v.1.15,2013-10-27 13:30:00,
2013-10-27 07:40:00,39.5,36.5,30.15,WNW,300,0.0,1.0,89,0.00,,,0.00,Wunderground v.1.15,2013-10-27 13:40:00,
2013-10-27 07:50:00,39.8,36.8,30.16,WNW,300,0.0,1.0,89,0.00,,,0.00,Wunderground v.1.15,2013-10-27 13:50:00,
2013-10-27 08:00:00,41.0,37.7,30.16,WNW,300,0.0,1.0,88,0.00,,,0.00,Wunderground v.1.15,2013-10-27 14:00:00,
2013-10-27 08:10:00,42.2,38.0,30.16,WNW,300,0.0,1.0,85,0.00,,,0.00,Wunderground v.1.15,2013-10-27 14:10:00,
2013-10-27 08:20:00,43.4,38.3,30.16,WNW,300,0.0,2.0,82,0.00,,,0.00,Wunderground v.1.15,2013-10-27 14:20:00,
2013-10-27 08:30:00,44.0,38.2,30.16,WNW,300,1.0,1.0,80,0.00,,,0.00,Wunderground v.1.15,2013-10-27 14:30:00,
2013-10-27 08:40:00,44.3,38.5,30.16,WNW,300,2.0,2.0,80,0.00,,,0.00,Wunderground v.1.15,2013-10-27 14:40:00,
2013-10-27 08:50:00,44.9,38.5,30.17,WNW,300,2.0,2.0,78,0.00,,,0.00,Wunderground v.1.15,2013-10-27 14:50:00,
2013-10-27 09:00:00,45.8,39.0,30.17,WNW,300,2.0,2.0,77,0.00,,,0.00,Wunderground v.1.15,2013-10-27 15:00:00,
2013-10-27 09:10:00,46.7,39.2,30.17,WNW,300,3.0,3.0,75,0.00,,,0.00,Wunderground v.1.15,2013-10-27 15:10:00,
2013-10-27 09:20:00,47.4,39.2,30.17,NNW,336,4.0,4.0,73,0.00,,,0.00,Wunderground v.1.15,2013-10-27 15:20:00,
2013-10-27 09:30:00,48.3,39.3,30.17,NNW,339,2.0,2.0,71,0.00,,,0.00,Wunderground v.1.15,2013-10-27 15:30:00,
2013-10-27 09:40:00,49.0,39.3,30.17,NNW,339,1.0,1.0,69,0.00,,,0.00,Wunderground v.1.15,2013-10-27 15:40:00,
2013-10-27 09:50:00,49.7,39.6,30.17,NNW,339,2.0,2.0,68,0.00,,,0.00,Wunderground v.1.15,2013-10-27 15:50:00,
2013-10-27 10:00:00,50.4,39.5,30.17,NNW,339,1.0,1.0,66,0.00,,,0.00,Wunderground v.1.15,2013-10-27 16:00:00,
2013-10-27 10:10:00,51.0,39.6,30.16,NNW,339,2.0,2.0,65,0.00,,,0.00,Wunderground v.1.15,2013-10-27 16:10:00,
2013-10-27 10:20:00,52.1,39.9,30.16,NNW,339,2.0,2.0,63,0.00,,,0.00,Wunderground v.1.15,2013-10-27 16:20:00,
2013-10-27 10:30:00,52.3,40.1,30.15,NNW,339,1.0,1.0,63,0.00,,,0.00,Wunderground v.1.15,2013-10-27 16:30:00,
2013-10-27 10:40:00,53.5,39.9,30.15,NNW,339,1.0,2.0,60,0.00,,,0.00,Wunderground v.1.15,2013-10-27 16:40:00,
2013-10-27 10:50:00,54.5,39.6,30.14,NNW,338,1.0,1.0,57,0.00,,,0.00,Wunderground v.1.15,2013-10-27 16:50:00,
2013-10-27 11:00:00,56.2,40.2,30.13,NNW,339,1.0,1.0,55,0.00,,,0.00,Wunderground v.1.15,2013-10-27 17:00:00,
2013-10-27 11:10:00,57.1,39.1,30.13,NNW,338,1.0,1.0,51,0.00,,,0.00,Wunderground v.1.15,2013-10-27 17:10:00,
2013-10-27 11:20:00,58.0,39.5,30.12,NNW,339,1.0,1.0,50,0.00,,,0.00,Wunderground v.1.15,2013-10-27 17:20:00,
2013-10-27 11:30:00,58.9,39.2,30.12,NNW,339,0.0,3.0,48,0.00,,,0.00,Wunderground v.1.15,2013-10-27 17:30:00,
2013-10-27 11:40:00,59.0,39.9,30.11,NNW,339,1.0,1.0,49,0.00,,,0.00,Wunderground v.1.15,2013-10-27 17:40:00,
2013-10-27 11:50:00,59.5,39.2,30.11,NNW,329,1.0,1.0,47,0.00,,,0.00,Wunderground v.1.15,2013-10-27 17:50:00,
2013-10-27 12:00:00,59.9,39.1,30.10,NNW,327,1.0,2.0,46,0.00,,,0.00,Wunderground v.1.15,2013-10-27 18:00:00,
2013-10-27 12:10:00,60.3,38.9,30.10,NW,326,1.0,5.0,45,0.00,,,0.00,Wunderground v.1.15,2013-10-27 18:10:00,
2013-10-27 12:20:00,60.7,38.6,30.09,NW,309,2.0,2.0,44,0.00,,,0.00,Wunderground v.1.15,2013-10-27 18:20:00,
2013-10-27 12:30:00,61.4,38.7,30.08,NW,307,2.0,4.0,43,0.00,,,0.00,Wunderground v.1.15,2013-10-27 18:30:00,
2013-10-27 12:40:00,61.8,37.8,30.07,WSW,244,3.0,3.0,41,0.00,,,0.00,Wunderground v.1.15,2013-10-27 18:40:00,
2013-10-27 12:50:00,62.6,37.3,30.06,WSW,243,1.0,1.0,39,0.00,,,0.00,Wunderground v.1.15,2013-10-27 18:50:00,
2013-10-27 13:00:00,62.3,37.0,30.05,SSW,213,3.0,4.0,39,0.00,,,0.00,Wunderground v.1.15,2013-10-27 19:00:00,
2013-10-27 13:10:00,62.7,36.7,30.04,SSW,194,3.0,7.0,38,0.00,,,0.00,Wunderground v.1.15,2013-10-27 19:10:00,
2013-10-27 13:20:00,62.9,38.2,30.03,South,180,4.0,4.0,40,0.00,,,0.00,Wunderground v.1.15,2013-10-27 19:20:00,
2013-10-27 13:30:00,63.4,37.3,30.02,South,181,3.0,3.0,38,0.00,,,0.00,Wunderground v.1.15,2013-10-27 19:30:00,
2013-10-27 13:40:00,63.5,37.4,30.01,South,170,4.0,4.0,38,0.00,,,0.00,Wunderground v.1.15,2013-10-27 19:40:00,
2013-10-27 13:50:00,64.0,37.2,30.00,South,171,3.0,4.0,37,0.00,,,0.00,Wunderground v.1.15,2013-10-27 19:50:00,
2013-10-27 14:00:00,64.8,37.9,29.99,SSW,198,2.0,3.0,37,0.00,,,0.00,Wunderground v.1.15,2013-10-27 20:00:00,
2013-10-27 14:10:00,64.5,37.6,29.98,SSW,203,4.0,4.0,37,0.00,,,0.00,Wunderground v.1.15,2013-10-27 20:10:00,
2013-10-27 14:20:00,65.2,36.8,29.97,SSE,164,3.0,3.0,35,0.00,,,0.00,Wunderground v.1.15,2013-10-27 20:20:00,
2013-10-27 14:30:00,65.6,37.2,29.97,South,182,5.0,5.0,35,0.00,,,0.00,Wunderground v.1.15,2013-10-27 20:30:00,
2013-10-27 14:40:00,65.8,37.4,29.96,ESE,122,4.0,5.0,35,0.00,,,0.00,Wunderground v.1.15,2013-10-27 20:40:00,
2013-10-27 14:50:00,66.1,36.9,29.96,SSE,164,3.0,3.0,34,0.00,,,0.00,Wunderground v.1.15,2013-10-27 20:50:00,
2013-10-27 15:00:00,66.9,36.1,29.95,SSW,198,3.0,3.0,32,0.00,,,0.00,Wunderground v.1.15,2013-10-27 21:00:00,
2013-10-27 15:10:00,66.8,36.8,29.95,South,172,4.0,4.0,33,0.00,,,0.00,Wunderground v.1.15,2013-10-27 21:10:00,
2013-10-27 15:20:00,66.7,36.7,29.94,SSE,168,3.0,4.0,33,0.00,,,0.00,Wunderground v.1.15,2013-10-27 21:20:00,
2013-10-27 15:30:00,67.1,36.2,29.94,SE,144,3.0,5.0,32,0.00,,,0.00,Wunderground v.1.15,2013-10-27 21:30:00,
2013-10-27 15:40:00,68.3,36.5,29.93,SSE,168,3.0,3.0,31,0.00,,,0.00,Wunderground v.1.15,2013-10-27 21:40:00,
2013-10-27 15:50:00,68.0,35.4,29.93,South,184,4.0,4.0,30,0.00,,,0.00,Wunderground v.1.15,2013-10-27 21:50:00,
2013-10-27 16:00:00,67.9,35.3,29.92,South,186,4.0,5.0,30,0.00,,,0.00,Wunderground v.1.15,2013-10-27 22:00:00,
2013-10-27 16:10:00,68.3,34.8,29.92,SSW,199,4.0,5.0,29,0.00,,,0.00,Wunderground v.1.15,2013-10-27 22:10:00,
2013-10-27 16:20:00,68.6,34.2,29.91,South,171,3.0,3.0,28,0.00,,,0.00,Wunderground v.1.15,2013-10-27 22:20:00,
2013-10-27 16:30:00,68.1,34.6,29.91,SE,144,3.0,5.0,29,0.00,,,0.00,Wunderground v.1.15,2013-10-27 22:30:00,
2013-10-27 16:40:00,68.2,34.7,29.91,SSE,150,6.0,6.0,29,0.00,,,0.00,Wunderground v.1.15,2013-10-27 22:40:00,
2013-10-27 16:50:00,68.5,34.1,29.90,SE,146,4.0,4.0,28,0.00,,,0.00,Wunderground v.1.15,2013-10-27 22:50:00,
2013-10-27 17:00:00,68.6,33.3,29.90,South,176,4.0,4.0,27,0.00,,,0.00,Wunderground v.1.15,2013-10-27 23:00:00,
2013-10-27 17:10:00,68.3,33.0,29.89,SSE,148,5.0,5.0,27,0.00,,,0.00,Wunderground v.1.15,2013-10-27 23:10:00,
2013-10-27 17:20:00,68.1,33.7,29.89,SE,144,3.0,8.0,28,0.00,,,0.00,Wunderground v.1.15,2013-10-27 23:20:00,
2013-10-27 17:30:00,68.1,33.7,29.88,SE,138,4.0,4.0,28,0.00,,,0.00,Wunderground v.1.15,2013-10-27 23:30:00,
2013-10-27 17:40:00,68.1,33.7,29.88,SSE,165,4.0,7.0,28,0.00,,,0.00,Wunderground v.1.15,2013-10-27 23:40:00,
2013-10-27 17:50:00,67.8,33.5,29.88,SSE,165,3.0,4.0,28,0.00,,,0.00,Wunderground v.1.15,2013-10-27 23:50:00,
2013-10-27 18:00:00,67.1,33.8,29.88,South,176,4.0,5.0,29,0.00,,,0.00,Wunderground v.1.15,2013-10-28 00:00:00,
2013-10-27 18:10:00,66.6,34.2,29.88,South,172,4.0,4.0,30,0.00,,,0.00,Wunderground v.1.15,2013-10-28 00:10:00,
2013-10-27 18:20:00,66.0,34.5,29.88,SSE,168,3.0,3.0,31,0.00,,,0.00,Wunderground v.1.15,2013-10-28 00:20:00,
2013-10-27 18:30:00,65.5,34.8,29.88,SSE,167,2.0,2.0,32,0.00,,,0.00,Wunderground v.1.15,2013-10-28 00:30:00,
2013-10-27 18:40:00,65.2,35.4,29.88,SSE,167,2.0,2.0,33,0.00,,,0.00,Wunderground v.1.15,2013-10-28 00:40:00,
2013-10-27 18:50:00,64.5,35.5,29.88,SSE,167,0.0,1.0,34,0.00,,,0.00,Wunderground v.1.15,2013-10-28 00:50:00,
2013-10-27 19:00:00,63.3,35.2,29.88,SSE,167,0.0,1.0,35,0.00,,,0.00,Wunderground v.1.15,2013-10-28 01:00:00,
2013-10-27 19:10:00,62.7,35.3,29.88,SSE,167,1.0,2.0,36,0.00,,,0.00,Wunderground v.1.15,2013-10-28 01:10:00,
2013-10-27 19:20:00,62.5,35.2,29.89,SSE,167,1.0,1.0,36,0.00,,,0.00,Wunderground v.1.15,2013-10-28 01:20:00,
2013-10-27 19:30:00,62.8,34.7,29.88,SSE,161,2.0,2.0,35,0.00,,,0.00,Wunderground v.1.15,2013-10-28 01:30:00,
2013-10-27 19:40:00,62.6,35.3,29.88,SSE,161,2.0,4.0,36,0.00,,,0.00,Wunderground v.1.15,2013-10-28 01:40:00,
2013-10-27 19:50:00,61.7,34.5,29.88,SSE,160,2.0,2.0,36,0.00,,,0.00,Wunderground v.1.15,2013-10-28 01:50:00,
2013-10-27 20:00:00,61.1,34.6,29.88,SSE,156,2.0,2.0,37,0.00,,,0.00,Wunderground v.1.15,2013-10-28 02:00:00,
2013-10-27 20:10:00,60.6,35.5,29.88,SSE,153,2.0,2.0,39,0.00,,,0.00,Wunderground v.1.15,2013-10-28 02:10:00,
2013-10-27 20:20:00,60.0,35.6,29.88,SE,146,2.0,2.0,40,0.00,,,0.00,Wunderground v.1.15,2013-10-28 02:20:00,
2013-10-27 20:30:00,59.6,35.9,29.89,SE,146,2.0,3.0,41,0.00,,,0.00,Wunderground v.1.15,2013-10-28 02:30:00,
2013-10-27 20:40:00,59.6,36.5,29.89,SE,145,2.0,2.0,42,0.00,,,0.00,Wunderground v.1.15,2013-10-28 02:40:00,
2013-10-27 20:50:00,59.8,36.6,29.89,SE,141,3.0,3.0,42,0.00,,,0.00,Wunderground v.1.15,2013-10-28 02:50:00,
2013-10-27 21:00:00,59.7,36.6,29.89,SE,139,3.0,3.0,42,0.00,,,0.00,Wunderground v.1.15,2013-10-28 03:00:00,
2013-10-27 21:10:00,59.7,37.2,29.88,SE,139,2.0,2.0,43,0.00,,,0.00,Wunderground v.1.15,2013-10-28 03:10:00,
2013-10-27 21:30:00,59.9,36.7,29.89,SE,136,2.0,2.0,42,0.00,,,0.00,Wunderground v.1.15,2013-10-28 03:30:00,
2013-10-27 21:40:00,59.9,36.7,29.89,SE,134,2.0,3.0,42,0.00,,,0.00,Wunderground v.1.15,2013-10-28 03:40:00,
2013-10-27 21:50:00,59.8,36.6,29.89,SSE,148,2.0,2.0,42,0.00,,,0.00,Wunderground v.1.15,2013-10-28 03:50:00,
2013-10-27 22:00:00,59.3,36.8,29.90,SSE,148,2.0,2.0,43,0.00,,,0.00,Wunderground v.1.15,2013-10-28 04:00:00,
2013-10-27 22:10:00,58.6,36.7,29.89,SSE,148,1.0,1.0,44,0.00,,,0.00,Wunderground v.1.15,2013-10-28 04:10:00,
2013-10-27 22:20:00,57.9,37.2,29.90,SSE,148,1.0,1.0,46,0.00,,,0.00,Wunderground v.1.15,2013-10-28 04:20:00,
2013-10-27 22:30:00,57.2,37.1,29.89,SSE,148,0.0,1.0,47,0.00,,,0.00,Wunderground v.1.15,2013-10-28 04:30:00,
2013-10-27 22:40:00,56.9,37.4,29.89,SSE,148,2.0,2.0,48,0.00,,,0.00,Wunderground v.1.15,2013-10-28 04:40:00,
2013-10-27 22:50:00,56.8,37.3,29.89,SSE,148,2.0,2.0,48,0.00,,,0.00,Wunderground v.1.15,2013-10-28 04:50:00,
2013-10-27 23:00:00,56.3,37.4,29.89,SSE,148,0.0,1.0,49,0.00,,,0.00,Wunderground v.1.15,2013-10-28 05:00:00,
2013-10-27 23:10:00,55.8,37.4,29.89,SSE,148,0.0,1.0,50,0.00,,,0.00,Wunderground v.1.15,2013-10-28 05:10:00,
2013-10-27 23:20:00,55.2,37.4,29.89,SSE,148,0.0,1.0,51,0.00,,,0.00,Wunderground v.1.15,2013-10-28 05:20:00,
2013-10-27 23:30:00,54.7,37.4,29.89,SSE,148,0.0,1.0,52,0.00,,,0.00,Wunderground v.1.15,2013-10-28 05:30:00,
2013-10-27 23:40:00,54.4,37.6,29.89,SSE,148,0.0,1.0,53,0.00,,,0.00,Wunderground v.1.15,2013-10-28 05:40:00,
2013-10-27 23:50:00,53.9,37.6,29.88,SSE,147,0.0,1.0,54,0.00,,,0.00,Wunderground v.1.15,2013-10-28 05:50:00,